sensor_id;sensor_type;location;lat;lon;timestamp;P1;durP1;ratioP1;P2;durP2;ratioP2
53497;SDS011;39382;47.168;16.008;2022-07-29T00:01:20;4.85;;;3.55;;
53497;SDS011;39382;47.168;16.008;2022-07-29T00:03:45;4.40;;;3.70;;
53497;SDS011;39382;47.168;16.008;2022-07-29T00:06:11;3.90;;;3.35;;
53497;SDS011;39382;47.168;16.008;2022-07-29T00:08:37;3.80;;;3.03;;
53497;SDS011;39382;47.168;16.008;2022-07-29T00:11:03;4.07;;;3.38;;
53497;SDS011;39382;47.168;16.008;2022-07-29T00:13:29;4.60;;;3.15;;
53497;SDS011;39382;47.168;16.008;2022-07-29T00:15:54;4.28;;;3.05;;
53497;SDS011;39382;47.168;16.008;2022-07-29T00:18:20;3.40;;;3.10;;
53497;SDS011;39382;47.168;16.008;2022-07-29T00:20:46;2.92;;;2.63;;
53497;SDS011;39382;47.168;16.008;2022-07-29T00:23:11;3.10;;;2.53;;
53497;SDS011;39382;47.168;16.008;2022-07-29T00:25:37;3.92;;;3.03;;
53497;SDS011;39382;47.168;16.008;2022-07-29T00:28:02;4.78;;;3.10;;
53497;SDS011;39382;47.168;16.008;2022-07-29T00:30:28;4.57;;;3.33;;
53497;SDS011;39382;47.168;16.008;2022-07-29T00:32:54;4.40;;;3.28;;
53497;SDS011;39382;47.168;16.008;2022-07-29T00:35:19;4.72;;;3.00;;
53497;SDS011;39382;47.168;16.008;2022-07-29T00:38:04;3.38;;;3.00;;
53497;SDS011;39382;47.168;16.008;2022-07-29T00:40:29;3.15;;;2.85;;
53497;SDS011;39382;47.168;16.008;2022-07-29T00:42:55;5.97;;;3.25;;
53497;SDS011;39382;47.168;16.008;2022-07-29T00:45:21;3.63;;;3.22;;
53497;SDS011;39382;47.168;16.008;2022-07-29T00:47:49;4.60;;;3.08;;
53497;SDS011;39382;47.168;16.008;2022-07-29T00:50:15;4.30;;;3.42;;
53497;SDS011;39382;47.168;16.008;2022-07-29T00:52:41;7.25;;;3.20;;
53497;SDS011;39382;47.168;16.008;2022-07-29T00:55:08;3.72;;;3.17;;
53497;SDS011;39382;47.168;16.008;2022-07-29T00:57:36;3.75;;;3.03;;
53497;SDS011;39382;47.168;16.008;2022-07-29T01:00:03;3.92;;;3.33;;
53497;SDS011;39382;47.168;16.008;2022-07-29T01:02:30;4.85;;;3.50;;
53497;SDS011;39382;47.168;16.008;2022-07-29T01:04:55;4.72;;;3.50;;
53497;SDS011;39382;47.168;16.008;2022-07-29T01:07:23;4.38;;;3.50;;
53497;SDS011;39382;47.168;16.008;2022-07-29T01:09:52;6.05;;;3.28;;
53497;SDS011;39382;47.168;16.008;2022-07-29T01:12:21;5.82;;;3.30;;
53497;SDS011;39382;47.168;16.008;2022-07-29T01:14:49;3.88;;;3.58;;
53497;SDS011;39382;47.168;16.008;2022-07-29T01:17:21;4.75;;;3.67;;
53497;SDS011;39382;47.168;16.008;2022-07-29T01:30:47;4.65;;;3.53;;
53497;SDS011;39382;47.168;16.008;2022-07-29T01:33:17;3.45;;;3.15;;
53497;SDS011;39382;47.168;16.008;2022-07-29T01:36:09;5.07;;;3.40;;
53497;SDS011;39382;47.168;16.008;2022-07-29T01:38:39;8.85;;;4.38;;
53497;SDS011;39382;47.168;16.008;2022-07-29T01:41:12;4.95;;;3.53;;
53497;SDS011;39382;47.168;16.008;2022-07-29T01:43:49;6.78;;;3.38;;
53497;SDS011;39382;47.168;16.008;2022-07-29T01:46:24;3.70;;;3.40;;
53497;SDS011;39382;47.168;16.008;2022-07-29T01:48:57;3.55;;;3.25;;
53497;SDS011;39382;47.168;16.008;2022-07-29T01:51:48;3.55;;;3.25;;
53497;SDS011;39382;47.168;16.008;2022-07-29T01:57:13;3.95;;;3.22;;
53497;SDS011;39382;47.168;16.008;2022-07-29T01:59:42;3.63;;;3.30;;
53497;SDS011;39382;47.168;16.008;2022-07-29T02:02:10;3.97;;;3.67;;
53497;SDS011;39382;47.168;16.008;2022-07-29T02:04:38;3.63;;;3.33;;
53497;SDS011;39382;47.168;16.008;2022-07-29T02:07:08;3.42;;;3.10;;
53497;SDS011;39382;47.168;16.008;2022-07-29T02:09:38;4.38;;;3.45;;
53497;SDS011;39382;47.168;16.008;2022-07-29T02:12:06;4.07;;;3.67;;
53497;SDS011;39382;47.168;16.008;2022-07-29T02:14:34;7.32;;;3.47;;
53497;SDS011;39382;47.168;16.008;2022-07-29T02:17:09;3.65;;;3.35;;
53497;SDS011;39382;47.168;16.008;2022-07-29T02:19:37;4.40;;;2.90;;
53497;SDS011;39382;47.168;16.008;2022-07-29T02:22:03;3.90;;;3.45;;
53497;SDS011;39382;47.168;16.008;2022-07-29T02:24:30;6.63;;;3.10;;
53497;SDS011;39382;47.168;16.008;2022-07-29T02:26:57;3.40;;;3.10;;
53497;SDS011;39382;47.168;16.008;2022-07-29T02:29:25;5.88;;;4.13;;
53497;SDS011;39382;47.168;16.008;2022-07-29T02:31:53;3.58;;;3.20;;
53497;SDS011;39382;47.168;16.008;2022-07-29T02:34:20;3.78;;;3.47;;
53497;SDS011;39382;47.168;16.008;2022-07-29T02:36:46;4.10;;;3.70;;
53497;SDS011;39382;47.168;16.008;2022-07-29T02:39:14;3.20;;;2.90;;
53497;SDS011;39382;47.168;16.008;2022-07-29T02:44:14;5.20;;;3.88;;
53497;SDS011;39382;47.168;16.008;2022-07-29T02:52:18;4.45;;;3.20;;
53497;SDS011;39382;47.168;16.008;2022-07-29T02:54:56;8.68;;;3.55;;
53497;SDS011;39382;47.168;16.008;2022-07-29T02:57:30;3.70;;;2.72;;
53497;SDS011;39382;47.168;16.008;2022-07-29T02:59:59;3.50;;;3.13;;
53497;SDS011;39382;47.168;16.008;2022-07-29T03:02:33;4.68;;;3.35;;
53497;SDS011;39382;47.168;16.008;2022-07-29T03:05:02;5.80;;;3.78;;
53497;SDS011;39382;47.168;16.008;2022-07-29T03:07:29;12.30;;;3.72;;
53497;SDS011;39382;47.168;16.008;2022-07-29T03:09:56;3.60;;;3.10;;
53497;SDS011;39382;47.168;16.008;2022-07-29T03:12:23;7.45;;;3.97;;
53497;SDS011;39382;47.168;16.008;2022-07-29T03:14:49;4.30;;;3.90;;
53497;SDS011;39382;47.168;16.008;2022-07-29T03:17:15;4.05;;;3.20;;
53497;SDS011;39382;47.168;16.008;2022-07-29T03:19:41;6.65;;;3.83;;
53497;SDS011;39382;47.168;16.008;2022-07-29T03:22:07;5.32;;;3.15;;
53497;SDS011;39382;47.168;16.008;2022-07-29T03:24:34;3.88;;;3.30;;
53497;SDS011;39382;47.168;16.008;2022-07-29T03:27:01;6.07;;;3.10;;
53497;SDS011;39382;47.168;16.008;2022-07-29T03:29:28;6.13;;;3.65;;
53497;SDS011;39382;47.168;16.008;2022-07-29T03:31:54;3.92;;;3.58;;
53497;SDS011;39382;47.168;16.008;2022-07-29T03:34:20;6.15;;;3.38;;
53497;SDS011;39382;47.168;16.008;2022-07-29T03:36:46;3.60;;;3.05;;
53497;SDS011;39382;47.168;16.008;2022-07-29T03:39:14;4.63;;;3.70;;
53497;SDS011;39382;47.168;16.008;2022-07-29T03:41:43;4.10;;;3.55;;
53497;SDS011;39382;47.168;16.008;2022-07-29T03:44:12;4.30;;;3.90;;
53497;SDS011;39382;47.168;16.008;2022-07-29T03:46:40;4.07;;;3.50;;
53497;SDS011;39382;47.168;16.008;2022-07-29T03:49:08;6.05;;;3.30;;
53497;SDS011;39382;47.168;16.008;2022-07-29T03:51:35;2.97;;;2.70;;
53497;SDS011;39382;47.168;16.008;2022-07-29T03:54:02;2.75;;;2.53;;
53497;SDS011;39382;47.168;16.008;2022-07-29T03:56:29;3.92;;;3.50;;
53497;SDS011;39382;47.168;16.008;2022-07-29T03:58:56;3.28;;;2.92;;
53497;SDS011;39382;47.168;16.008;2022-07-29T04:01:23;4.95;;;2.92;;
53497;SDS011;39382;47.168;16.008;2022-07-29T04:03:50;4.45;;;3.20;;
53497;SDS011;39382;47.168;16.008;2022-07-29T04:06:16;3.13;;;2.88;;
53497;SDS011;39382;47.168;16.008;2022-07-29T04:08:42;6.32;;;3.33;;
53497;SDS011;39382;47.168;16.008;2022-07-29T04:11:07;3.22;;;2.92;;
53497;SDS011;39382;47.168;16.008;2022-07-29T04:13:33;3.60;;;3.30;;
53497;SDS011;39382;47.168;16.008;2022-07-29T04:15:59;4.90;;;2.80;;
53497;SDS011;39382;47.168;16.008;2022-07-29T04:18:24;3.08;;;2.88;;
53497;SDS011;39382;47.168;16.008;2022-07-29T04:20:50;4.60;;;3.58;;
53497;SDS011;39382;47.168;16.008;2022-07-29T04:23:16;3.88;;;3.13;;
53497;SDS011;39382;47.168;16.008;2022-07-29T04:25:42;3.80;;;3.17;;
53497;SDS011;39382;47.168;16.008;2022-07-29T04:28:08;3.80;;;3.00;;
53497;SDS011;39382;47.168;16.008;2022-07-29T04:30:35;3.47;;;3.17;;
53497;SDS011;39382;47.168;16.008;2022-07-29T04:33:03;4.07;;;3.05;;
53497;SDS011;39382;47.168;16.008;2022-07-29T04:35:30;3.67;;;2.75;;
53497;SDS011;39382;47.168;16.008;2022-07-29T04:37:58;3.15;;;2.83;;
53497;SDS011;39382;47.168;16.008;2022-07-29T04:40:24;5.43;;;3.63;;
53497;SDS011;39382;47.168;16.008;2022-07-29T04:42:52;3.55;;;3.00;;
53497;SDS011;39382;47.168;16.008;2022-07-29T04:45:17;3.63;;;3.00;;
53497;SDS011;39382;47.168;16.008;2022-07-29T04:47:43;3.53;;;3.20;;
53497;SDS011;39382;47.168;16.008;2022-07-29T04:50:09;7.50;;;3.10;;
53497;SDS011;39382;47.168;16.008;2022-07-29T04:52:34;3.90;;;3.30;;
53497;SDS011;39382;47.168;16.008;2022-07-29T04:55:01;6.38;;;3.83;;
53497;SDS011;39382;47.168;16.008;2022-07-29T04:57:28;4.05;;;2.92;;
53497;SDS011;39382;47.168;16.008;2022-07-29T04:59:53;3.17;;;2.92;;
53497;SDS011;39382;47.168;16.008;2022-07-29T05:02:19;5.25;;;3.08;;
53497;SDS011;39382;47.168;16.008;2022-07-29T05:04:45;3.72;;;3.42;;
53497;SDS011;39382;47.168;16.008;2022-07-29T05:07:10;6.05;;;4.53;;
53497;SDS011;39382;47.168;16.008;2022-07-29T05:09:36;2.95;;;2.72;;
53497;SDS011;39382;47.168;16.008;2022-07-29T05:12:02;7.45;;;3.67;;
53497;SDS011;39382;47.168;16.008;2022-07-29T05:14:27;3.75;;;3.35;;
53497;SDS011;39382;47.168;16.008;2022-07-29T05:16:53;3.72;;;3.42;;
53497;SDS011;39382;47.168;16.008;2022-07-29T05:19:21;6.60;;;3.10;;
53497;SDS011;39382;47.168;16.008;2022-07-29T05:21:47;4.68;;;3.28;;
53497;SDS011;39382;47.168;16.008;2022-07-29T05:24:13;3.63;;;2.88;;
53497;SDS011;39382;47.168;16.008;2022-07-29T05:26:39;3.30;;;3.00;;
53497;SDS011;39382;47.168;16.008;2022-07-29T05:29:05;5.20;;;3.88;;
53497;SDS011;39382;47.168;16.008;2022-07-29T05:31:31;6.35;;;3.53;;
53497;SDS011;39382;47.168;16.008;2022-07-29T05:33:56;7.15;;;4.03;;
53497;SDS011;39382;47.168;16.008;2022-07-29T05:36:22;3.97;;;3.47;;
53497;SDS011;39382;47.168;16.008;2022-07-29T05:38:48;5.20;;;4.65;;
53497;SDS011;39382;47.168;16.008;2022-07-29T05:41:13;4.43;;;3.80;;
53497;SDS011;39382;47.168;16.008;2022-07-29T05:43:39;6.50;;;4.05;;
53497;SDS011;39382;47.168;16.008;2022-07-29T05:46:05;5.00;;;4.13;;
53497;SDS011;39382;47.168;16.008;2022-07-29T05:48:30;4.78;;;4.18;;
53497;SDS011;39382;47.168;16.008;2022-07-29T05:50:57;4.15;;;3.75;;
53497;SDS011;39382;47.168;16.008;2022-07-29T05:53:22;5.60;;;3.65;;
53497;SDS011;39382;47.168;16.008;2022-07-29T05:55:48;4.47;;;3.80;;
53497;SDS011;39382;47.168;16.008;2022-07-29T05:58:14;4.32;;;3.92;;
53497;SDS011;39382;47.168;16.008;2022-07-29T06:00:40;4.32;;;3.97;;
53497;SDS011;39382;47.168;16.008;2022-07-29T06:03:06;6.72;;;4.40;;
53497;SDS011;39382;47.168;16.008;2022-07-29T06:05:31;6.30;;;3.78;;
53497;SDS011;39382;47.168;16.008;2022-07-29T06:07:57;6.32;;;3.70;;
53497;SDS011;39382;47.168;16.008;2022-07-29T06:10:23;4.95;;;4.10;;
53497;SDS011;39382;47.168;16.008;2022-07-29T06:12:49;4.70;;;3.78;;
53497;SDS011;39382;47.168;16.008;2022-07-29T06:15:15;4.22;;;3.65;;
53497;SDS011;39382;47.168;16.008;2022-07-29T06:17:40;4.43;;;4.03;;
53497;SDS011;39382;47.168;16.008;2022-07-29T06:20:06;6.72;;;3.58;;
53497;SDS011;39382;47.168;16.008;2022-07-29T06:22:32;4.40;;;4.00;;
53497;SDS011;39382;47.168;16.008;2022-07-29T06:24:58;4.70;;;3.78;;
53497;SDS011;39382;47.168;16.008;2022-07-29T06:27:23;4.22;;;3.83;;
53497;SDS011;39382;47.168;16.008;2022-07-29T06:29:49;4.85;;;3.63;;
53497;SDS011;39382;47.168;16.008;2022-07-29T06:32:15;4.25;;;3.20;;
53497;SDS011;39382;47.168;16.008;2022-07-29T06:34:40;4.25;;;3.85;;
53497;SDS011;39382;47.168;16.008;2022-07-29T06:37:06;6.07;;;4.20;;
53497;SDS011;39382;47.168;16.008;2022-07-29T06:39:36;4.03;;;3.65;;
53497;SDS011;39382;47.168;16.008;2022-07-29T06:42:02;4.28;;;3.45;;
53497;SDS011;39382;47.168;16.008;2022-07-29T06:44:29;3.53;;;3.22;;
53497;SDS011;39382;47.168;16.008;2022-07-29T06:46:55;3.50;;;3.20;;
53497;SDS011;39382;47.168;16.008;2022-07-29T06:49:21;4.53;;;3.53;;
53497;SDS011;39382;47.168;16.008;2022-07-29T06:51:48;4.10;;;3.25;;
53497;SDS011;39382;47.168;16.008;2022-07-29T06:54:14;5.45;;;3.45;;
53497;SDS011;39382;47.168;16.008;2022-07-29T06:56:39;3.58;;;3.17;;
53497;SDS011;39382;47.168;16.008;2022-07-29T06:59:08;3.72;;;3.03;;
53497;SDS011;39382;47.168;16.008;2022-07-29T07:01:39;4.25;;;3.83;;
53497;SDS011;39382;47.168;16.008;2022-07-29T07:04:06;4.25;;;3.25;;
53497;SDS011;39382;47.168;16.008;2022-07-29T07:06:33;3.33;;;3.03;;
53497;SDS011;39382;47.168;16.008;2022-07-29T07:08:59;3.95;;;2.97;;
53497;SDS011;39382;47.168;16.008;2022-07-29T07:11:25;6.28;;;3.03;;
53497;SDS011;39382;47.168;16.008;2022-07-29T07:13:50;7.75;;;3.35;;
53497;SDS011;39382;47.168;16.008;2022-07-29T07:16:16;4.68;;;3.15;;
53497;SDS011;39382;47.168;16.008;2022-07-29T07:18:42;4.13;;;2.78;;
53497;SDS011;39382;47.168;16.008;2022-07-29T07:21:09;5.82;;;3.33;;
53497;SDS011;39382;47.168;16.008;2022-07-29T07:23:35;4.47;;;3.00;;
53497;SDS011;39382;47.168;16.008;2022-07-29T07:26:01;5.43;;;2.53;;
53497;SDS011;39382;47.168;16.008;2022-07-29T07:28:28;4.07;;;2.30;;
53497;SDS011;39382;47.168;16.008;2022-07-29T07:30:53;3.42;;;2.65;;
53497;SDS011;39382;47.168;16.008;2022-07-29T07:33:19;3.60;;;2.40;;
53497;SDS011;39382;47.168;16.008;2022-07-29T07:35:45;5.80;;;2.75;;
53497;SDS011;39382;47.168;16.008;2022-07-29T07:38:11;5.18;;;2.72;;
53497;SDS011;39382;47.168;16.008;2022-07-29T07:40:37;7.93;;;2.67;;
53497;SDS011;39382;47.168;16.008;2022-07-29T07:43:02;4.60;;;3.22;;
53497;SDS011;39382;47.168;16.008;2022-07-29T07:45:28;2.90;;;2.70;;
53497;SDS011;39382;47.168;16.008;2022-07-29T07:47:54;3.47;;;2.42;;
53497;SDS011;39382;47.168;16.008;2022-07-29T07:50:19;5.85;;;2.58;;
53497;SDS011;39382;47.168;16.008;2022-07-29T07:52:46;2.92;;;2.15;;
53497;SDS011;39382;47.168;16.008;2022-07-29T07:55:12;3.08;;;2.40;;
53497;SDS011;39382;47.168;16.008;2022-07-29T07:57:38;5.55;;;2.10;;
53497;SDS011;39382;47.168;16.008;2022-07-29T08:00:04;2.45;;;2.25;;
53497;SDS011;39382;47.168;16.008;2022-07-29T08:02:31;2.70;;;2.28;;
53497;SDS011;39382;47.168;16.008;2022-07-29T08:04:57;5.57;;;2.53;;
53497;SDS011;39382;47.168;16.008;2022-07-29T08:07:24;2.67;;;2.28;;
53497;SDS011;39382;47.168;16.008;2022-07-29T08:09:49;2.75;;;2.10;;
53497;SDS011;39382;47.168;16.008;2022-07-29T08:12:15;4.15;;;2.17;;
53497;SDS011;39382;47.168;16.008;2022-07-29T08:14:41;2.13;;;1.88;;
53497;SDS011;39382;47.168;16.008;2022-07-29T08:17:06;5.32;;;2.13;;
53497;SDS011;39382;47.168;16.008;2022-07-29T08:19:32;2.53;;;2.00;;
53497;SDS011;39382;47.168;16.008;2022-07-29T08:21:58;2.30;;;2.08;;
53497;SDS011;39382;47.168;16.008;2022-07-29T08:24:23;2.88;;;1.63;;
53497;SDS011;39382;47.168;16.008;2022-07-29T08:27:08;2.65;;;1.65;;
53497;SDS011;39382;47.168;16.008;2022-07-29T08:29:37;2.33;;;1.75;;
53497;SDS011;39382;47.168;16.008;2022-07-29T08:32:03;2.67;;;1.65;;
53497;SDS011;39382;47.168;16.008;2022-07-29T08:34:29;5.13;;;1.83;;
53497;SDS011;39382;47.168;16.008;2022-07-29T08:36:55;5.30;;;1.65;;
53497;SDS011;39382;47.168;16.008;2022-07-29T08:39:21;2.28;;;2.08;;
53497;SDS011;39382;47.168;16.008;2022-07-29T08:41:47;5.28;;;2.00;;
53497;SDS011;39382;47.168;16.008;2022-07-29T08:44:15;2.53;;;1.60;;
53497;SDS011;39382;47.168;16.008;2022-07-29T08:46:42;2.38;;;1.95;;
53497;SDS011;39382;47.168;16.008;2022-07-29T08:49:08;1.80;;;1.48;;
53497;SDS011;39382;47.168;16.008;2022-07-29T08:51:33;2.50;;;1.77;;
53497;SDS011;39382;47.168;16.008;2022-07-29T08:54:01;3.35;;;1.98;;
53497;SDS011;39382;47.168;16.008;2022-07-29T08:56:27;2.95;;;2.00;;
53497;SDS011;39382;47.168;16.008;2022-07-29T08:58:53;4.40;;;1.60;;
53497;SDS011;39382;47.168;16.008;2022-07-29T09:01:23;2.63;;;1.65;;
53497;SDS011;39382;47.168;16.008;2022-07-29T09:03:51;3.17;;;1.90;;
53497;SDS011;39382;47.168;16.008;2022-07-29T09:06:20;1.50;;;1.40;;
53497;SDS011;39382;47.168;16.008;2022-07-29T09:08:48;1.90;;;1.40;;
53497;SDS011;39382;47.168;16.008;2022-07-29T09:11:14;1.65;;;1.55;;
53497;SDS011;39382;47.168;16.008;2022-07-29T09:13:40;2.05;;;1.83;;
53497;SDS011;39382;47.168;16.008;2022-07-29T09:16:06;1.42;;;1.30;;
53497;SDS011;39382;47.168;16.008;2022-07-29T09:18:42;1.35;;;1.25;;
53497;SDS011;39382;47.168;16.008;2022-07-29T09:21:10;1.20;;;1.10;;
53497;SDS011;39382;47.168;16.008;2022-07-29T09:24:13;2.17;;;1.38;;
53497;SDS011;39382;47.168;16.008;2022-07-29T09:26:45;1.50;;;1.20;;
53497;SDS011;39382;47.168;16.008;2022-07-29T09:29:12;1.60;;;1.50;;
53497;SDS011;39382;47.168;16.008;2022-07-29T09:31:46;1.40;;;1.30;;
53497;SDS011;39382;47.168;16.008;2022-07-29T09:34:15;3.53;;;1.45;;
53497;SDS011;39382;47.168;16.008;2022-07-29T09:36:46;2.17;;;1.60;;
53497;SDS011;39382;47.168;16.008;2022-07-29T09:39:14;1.48;;;1.38;;
53497;SDS011;39382;47.168;16.008;2022-07-29T09:41:52;1.80;;;1.13;;
53497;SDS011;39382;47.168;16.008;2022-07-29T09:44:19;4.70;;;1.40;;
53497;SDS011;39382;47.168;16.008;2022-07-29T09:47:19;3.22;;;1.60;;
53497;SDS011;39382;47.168;16.008;2022-07-29T09:49:51;3.30;;;1.60;;
53497;SDS011;39382;47.168;16.008;2022-07-29T09:52:24;1.67;;;1.58;;
53497;SDS011;39382;47.168;16.008;2022-07-29T09:54:51;1.45;;;1.35;;
53497;SDS011;39382;47.168;16.008;2022-07-29T09:57:22;2.28;;;1.60;;
53497;SDS011;39382;47.168;16.008;2022-07-29T09:59:59;1.75;;;1.52;;
53497;SDS011;39382;47.168;16.008;2022-07-29T10:02:30;2.20;;;1.53;;
53497;SDS011;39382;47.168;16.008;2022-07-29T10:04:57;3.22;;;1.40;;
53497;SDS011;39382;47.168;16.008;2022-07-29T10:07:23;1.20;;;1.10;;
53497;SDS011;39382;47.168;16.008;2022-07-29T10:09:52;1.40;;;1.30;;
53497;SDS011;39382;47.168;16.008;2022-07-29T10:12:19;1.70;;;1.42;;
53497;SDS011;39382;47.168;16.008;2022-07-29T10:14:45;2.28;;;2.10;;
53497;SDS011;39382;47.168;16.008;2022-07-29T10:17:12;2.88;;;1.73;;
53497;SDS011;39382;47.168;16.008;2022-07-29T10:19:38;1.92;;;1.50;;
53497;SDS011;39382;47.168;16.008;2022-07-29T10:22:05;1.60;;;1.50;;
53497;SDS011;39382;47.168;16.008;2022-07-29T10:24:33;2.28;;;1.55;;
53497;SDS011;39382;47.168;16.008;2022-07-29T10:27:00;3.55;;;1.65;;
53497;SDS011;39382;47.168;16.008;2022-07-29T10:29:28;1.67;;;1.58;;
53497;SDS011;39382;47.168;16.008;2022-07-29T10:37:45;6.40;;;1.70;;
53497;SDS011;39382;47.168;16.008;2022-07-29T10:40:17;1.50;;;1.40;;
53497;SDS011;39382;47.168;16.008;2022-07-29T10:43:16;3.05;;;1.52;;
53497;SDS011;39382;47.168;16.008;2022-07-29T10:45:48;2.10;;;1.40;;
53497;SDS011;39382;47.168;16.008;2022-07-29T10:48:14;1.98;;;1.70;;
53497;SDS011;39382;47.168;16.008;2022-07-29T10:50:53;2.38;;;1.40;;
53497;SDS011;39382;47.168;16.008;2022-07-29T10:53:22;3.33;;;1.60;;
53497;SDS011;39382;47.168;16.008;2022-07-29T10:55:48;2.30;;;1.40;;
53497;SDS011;39382;47.168;16.008;2022-07-29T11:00:42;1.42;;;1.33;;
53497;SDS011;39382;47.168;16.008;2022-07-29T11:03:08;2.13;;;1.83;;
53497;SDS011;39382;47.168;16.008;2022-07-29T11:05:53;1.65;;;1.20;;
53497;SDS011;39382;47.168;16.008;2022-07-29T11:08:20;1.50;;;0.95;;
53497;SDS011;39382;47.168;16.008;2022-07-29T11:10:48;4.85;;;1.23;;
53497;SDS011;39382;47.168;16.008;2022-07-29T11:13:44;2.13;;;1.05;;
53497;SDS011;39382;47.168;16.008;2022-07-29T11:16:06;1.70;;;1.25;;
53497;SDS011;39382;47.168;16.008;2022-07-29T11:18:32;1.35;;;1.13;;
53497;SDS011;39382;47.168;16.008;2022-07-29T11:20:58;1.20;;;1.10;;
53497;SDS011;39382;47.168;16.008;2022-07-29T11:23:28;3.05;;;1.38;;
53497;SDS011;39382;47.168;16.008;2022-07-29T11:29:03;1.50;;;1.40;;
53497;SDS011;39382;47.168;16.008;2022-07-29T11:31:42;1.38;;;1.27;;
53497;SDS011;39382;47.168;16.008;2022-07-29T11:47:30;1.77;;;1.42;;
53497;SDS011;39382;47.168;16.008;2022-07-29T11:49:56;2.17;;;1.52;;
53497;SDS011;39382;47.168;16.008;2022-07-29T11:52:23;3.47;;;1.10;;
53497;SDS011;39382;47.168;16.008;2022-07-29T11:55:02;1.40;;;1.30;;
53497;SDS011;39382;47.168;16.008;2022-07-29T11:57:30;1.58;;;1.17;;
53497;SDS011;39382;47.168;16.008;2022-07-29T11:59:57;1.00;;;1.00;;
53497;SDS011;39382;47.168;16.008;2022-07-29T12:02:23;1.98;;;1.48;;
53497;SDS011;39382;47.168;16.008;2022-07-29T12:04:50;1.38;;;1.27;;
53497;SDS011;39382;47.168;16.008;2022-07-29T12:07:16;1.45;;;1.10;;
53497;SDS011;39382;47.168;16.008;2022-07-29T12:09:51;2.22;;;1.30;;
53497;SDS011;39382;47.168;16.008;2022-07-29T12:12:18;1.20;;;1.10;;
53497;SDS011;39382;47.168;16.008;2022-07-29T12:14:44;1.20;;;1.10;;
53497;SDS011;39382;47.168;16.008;2022-07-29T12:17:32;1.88;;;1.23;;
53497;SDS011;39382;47.168;16.008;2022-07-29T12:20:00;1.48;;;1.38;;
53497;SDS011;39382;47.168;16.008;2022-07-29T12:22:30;1.42;;;1.25;;
53497;SDS011;39382;47.168;16.008;2022-07-29T12:25:05;3.50;;;1.50;;
53497;SDS011;39382;47.168;16.008;2022-07-29T12:27:34;4.03;;;1.10;;
53497;SDS011;39382;47.168;16.008;2022-07-29T12:30:02;3.88;;;1.20;;
53497;SDS011;39382;47.168;16.008;2022-07-29T12:32:31;2.30;;;1.48;;
53497;SDS011;39382;47.168;16.008;2022-07-29T12:35:04;1.70;;;1.00;;
53497;SDS011;39382;47.168;16.008;2022-07-29T12:37:34;1.20;;;1.10;;
53497;SDS011;39382;47.168;16.008;2022-07-29T12:40:05;1.40;;;1.30;;
53497;SDS011;39382;47.168;16.008;2022-07-29T12:42:32;2.50;;;1.58;;
53497;SDS011;39382;47.168;16.008;2022-07-29T12:44:58;3.85;;;1.50;;
53497;SDS011;39382;47.168;16.008;2022-07-29T12:47:24;2.50;;;1.55;;
53497;SDS011;39382;47.168;16.008;2022-07-29T12:49:50;7.55;;;1.30;;
53497;SDS011;39382;47.168;16.008;2022-07-29T12:52:32;2.53;;;1.60;;
53497;SDS011;39382;47.168;16.008;2022-07-29T12:54:59;2.55;;;1.45;;
53497;SDS011;39382;47.168;16.008;2022-07-29T12:57:25;1.45;;;1.35;;
53497;SDS011;39382;47.168;16.008;2022-07-29T13:02:35;2.78;;;1.30;;
53497;SDS011;39382;47.168;16.008;2022-07-29T13:05:02;2.80;;;1.55;;
53497;SDS011;39382;47.168;16.008;2022-07-29T13:07:29;3.40;;;1.52;;
53497;SDS011;39382;47.168;16.008;2022-07-29T13:10:10;2.00;;;1.30;;
53497;SDS011;39382;47.168;16.008;2022-07-29T13:12:37;1.50;;;1.40;;
53497;SDS011;39382;47.168;16.008;2022-07-29T13:15:15;2.40;;;1.83;;
53497;SDS011;39382;47.168;16.008;2022-07-29T13:17:42;2.30;;;1.75;;
53497;SDS011;39382;47.168;16.008;2022-07-29T13:20:11;1.80;;;1.70;;
53497;SDS011;39382;47.168;16.008;2022-07-29T13:22:38;1.33;;;1.20;;
53497;SDS011;39382;47.168;16.008;2022-07-29T13:25:05;1.77;;;1.40;;
53497;SDS011;39382;47.168;16.008;2022-07-29T13:27:32;2.00;;;1.25;;
53497;SDS011;39382;47.168;16.008;2022-07-29T13:29:59;4.55;;;2.25;;
53497;SDS011;39382;47.168;16.008;2022-07-29T13:32:26;1.58;;;1.13;;
53497;SDS011;39382;47.168;16.008;2022-07-29T13:34:53;2.55;;;1.80;;
53497;SDS011;39382;47.168;16.008;2022-07-29T13:37:24;1.40;;;1.30;;
53497;SDS011;39382;47.168;16.008;2022-07-29T13:39:50;3.05;;;1.30;;
53497;SDS011;39382;47.168;16.008;2022-07-29T13:42:17;3.15;;;1.38;;
53497;SDS011;39382;47.168;16.008;2022-07-29T13:44:42;2.63;;;1.45;;
53497;SDS011;39382;47.168;16.008;2022-07-29T13:47:08;1.42;;;1.33;;
53497;SDS011;39382;47.168;16.008;2022-07-29T13:49:34;2.30;;;1.58;;
53497;SDS011;39382;47.168;16.008;2022-07-29T13:52:00;1.67;;;1.58;;
53497;SDS011;39382;47.168;16.008;2022-07-29T13:54:26;2.70;;;1.60;;
53497;SDS011;39382;47.168;16.008;2022-07-29T13:56:52;3.08;;;1.70;;
53497;SDS011;39382;47.168;16.008;2022-07-29T13:59:17;1.95;;;1.80;;
53497;SDS011;39382;47.168;16.008;2022-07-29T14:01:43;3.10;;;1.40;;
53497;SDS011;39382;47.168;16.008;2022-07-29T14:04:09;2.40;;;1.80;;
53497;SDS011;39382;47.168;16.008;2022-07-29T14:06:35;2.42;;;1.50;;
53497;SDS011;39382;47.168;16.008;2022-07-29T14:09:01;4.60;;;1.40;;
53497;SDS011;39382;47.168;16.008;2022-07-29T14:11:30;2.38;;;1.40;;
53497;SDS011;39382;47.168;16.008;2022-07-29T14:13:56;1.88;;;1.45;;
53497;SDS011;39382;47.168;16.008;2022-07-29T14:16:22;2.05;;;1.55;;
53497;SDS011;39382;47.168;16.008;2022-07-29T14:18:48;1.27;;;1.20;;
53497;SDS011;39382;47.168;16.008;2022-07-29T14:21:13;2.42;;;1.58;;
53497;SDS011;39382;47.168;16.008;2022-07-29T14:23:39;1.95;;;1.45;;
53497;SDS011;39382;47.168;16.008;2022-07-29T14:26:05;4.43;;;1.83;;
53497;SDS011;39382;47.168;16.008;2022-07-29T14:28:31;2.03;;;1.50;;
53497;SDS011;39382;47.168;16.008;2022-07-29T14:30:57;1.67;;;1.58;;
53497;SDS011;39382;47.168;16.008;2022-07-29T14:33:22;1.58;;;1.30;;
53497;SDS011;39382;47.168;16.008;2022-07-29T14:35:48;1.60;;;1.50;;
53497;SDS011;39382;47.168;16.008;2022-07-29T14:38:14;2.28;;;1.80;;
53497;SDS011;39382;47.168;16.008;2022-07-29T14:40:39;3.53;;;1.42;;
53497;SDS011;39382;47.168;16.008;2022-07-29T14:43:05;2.30;;;1.65;;
53497;SDS011;39382;47.168;16.008;2022-07-29T14:45:31;1.40;;;1.30;;
53497;SDS011;39382;47.168;16.008;2022-07-29T14:47:56;1.83;;;1.40;;
53497;SDS011;39382;47.168;16.008;2022-07-29T14:50:22;2.42;;;1.55;;
53497;SDS011;39382;47.168;16.008;2022-07-29T14:52:48;1.48;;;1.38;;
53497;SDS011;39382;47.168;16.008;2022-07-29T14:55:14;1.60;;;1.50;;
53497;SDS011;39382;47.168;16.008;2022-07-29T14:57:40;4.03;;;1.63;;
53497;SDS011;39382;47.168;16.008;2022-07-29T15:00:06;4.05;;;1.30;;
53497;SDS011;39382;47.168;16.008;2022-07-29T15:02:32;2.38;;;1.63;;
53497;SDS011;39382;47.168;16.008;2022-07-29T15:04:58;1.60;;;1.50;;
53497;SDS011;39382;47.168;16.008;2022-07-29T15:07:24;2.17;;;1.98;;
53497;SDS011;39382;47.168;16.008;2022-07-29T15:09:50;1.73;;;1.60;;
53497;SDS011;39382;47.168;16.008;2022-07-29T15:12:15;2.28;;;1.52;;
53497;SDS011;39382;47.168;16.008;2022-07-29T15:14:41;1.95;;;1.58;;
53497;SDS011;39382;47.168;16.008;2022-07-29T15:17:07;2.38;;;2.00;;
53497;SDS011;39382;47.168;16.008;2022-07-29T15:19:33;2.80;;;1.65;;
53497;SDS011;39382;47.168;16.008;2022-07-29T15:21:59;6.30;;;1.73;;
53497;SDS011;39382;47.168;16.008;2022-07-29T15:24:25;1.95;;;1.58;;
53497;SDS011;39382;47.168;16.008;2022-07-29T15:26:51;2.33;;;1.40;;